• Join FlightAware (Why Join?)
  • Login
  • US Flag 
10:00AM EDT


 

Airport Tracker/Info


-or-


 

Live Flight TrackerFlight Track Log ✈ UAL4236 ✈ 12-May-2013 ✈ KSDF - KIAH

Flight Track Log - Related Links

Times and Time Zones

All times are in EDT time to prevent confusion due to time zone crossing. See the UAL4236 flight status page for this flight to view local times or setup timezone preferences in your user account.

Time Position Orientation Groundspeed Altitude Reporting Facility
EDT Latitude Longitude Course Direction KTS MPH feet Rate Location/Type
06:51PM 38.2750 -85.8203 262° West 250 288 5,200  Level Indianapolis Center
06:52PM 38.2619 -85.9033 259° West 246 283 7,600 2,220 Climbing Indianapolis Center
06:53PM 38.2050 -85.9664 221° Southwest 267 307 9,800 1,740 Climbing Indianapolis Center
06:54PM 38.1583 -86.0456 233° Southwest 282 325 11,200 1,200 Climbing Indianapolis Center
06:55PM 38.0465 -86.2833 262° West  Level FlightAware Approximate
06:55PM 38.1106 -86.1367 236° Southwest 306 352 12,300  Level Indianapolis Center
06:56PM 38.0330 -86.4122 262° West  Level FlightAware Approximate
06:56PM 38.0494 -86.2556 237° Southwest 330 380 13,900  Level Indianapolis Center
06:57PM 37.9969 -86.3558 236° Southwest 338 389 15,200 1,200 Climbing Indianapolis Center
06:58PM 37.9447 -86.4567 237° Southwest 339 390 16,400 1,080 Climbing Indianapolis Center
06:59PM 37.8892 -86.5600 236° Southwest 350 403 17,500 960 Climbing Indianapolis Center
07:00PM 37.8347 -86.6636 236° Southwest 350 403 18,400 960 Climbing Indianapolis Center
07:01PM 37.7789 -86.7703 237° Southwest 357 411 19,500 1,020 Climbing Indianapolis Center
07:02PM 37.7222 -86.8772 236° Southwest 361 415 20,600 1,020 Climbing Indianapolis Center
07:03PM 37.6650 -86.9844 236° Southwest 364 419 21,700 1,080 Climbing Indianapolis Center
07:04PM 37.6072 -87.0917 236° Southwest 366 421 22,900 1,140 Climbing Indianapolis Center
07:05PM 37.5439 -87.2122 236° Southwest 368 423 24,100 1,080 Climbing Indianapolis Center
07:06PM 37.4867 -87.3169 235° Southwest 364 419 25,200 1,080 Climbing Indianapolis Center
07:07PM 37.4425 -87.4028 237° Southwest 372 428 26,100 1,080 Climbing Memphis Center
07:08PM 37.3867 -87.5067 236° Southwest 367 422 27,200 1,080 Climbing Memphis Center
07:09PM 37.3283 -87.6078 234° Southwest 360 414 28,300 1,080 Climbing Memphis Center
07:10PM 37.2725 -87.7139 237° Southwest 360 414 29,400 1,080 Climbing Memphis Center
07:11PM 37.2183 -87.8147 236° Southwest 353 406 30,500 1,080 Climbing Memphis Center
07:12PM 37.1661 -87.9100 235° Southwest 353 406 31,600 900 Climbing Memphis Center
07:13PM 37.1117 -88.0106 236° Southwest 353 406 32,300 780 Climbing Memphis Center
07:14PM 37.0553 -88.1111 235° Southwest 353 406 33,200 840 Climbing Memphis Center
07:15PM 37.0050 -88.2111 238° Southwest 353 406 34,000 360 Climbing Memphis Center
07:16PM 36.9464 -88.3139 235° Southwest 353 406 34,000  Level Memphis Center
07:17PM 36.8894 -88.4167 235° Southwest 364 419 34,000  Level Memphis Center
07:18PM 36.8328 -88.5192 235° Southwest 364 419 34,000  Level Memphis Center
07:19PM 36.7758 -88.6214 235° Southwest 364 419 34,000  Level Memphis Center
07:20PM 36.7272 -88.7106 236° Southwest 364 419 34,000 420 Level Memphis Center
07:21PM 36.6700 -88.8075 234° Southwest 364 419 34,900 960 Climbing Memphis Center
07:22PM 36.6169 -88.9014 235° Southwest 359 413 36,000 540 Climbing Memphis Center
07:23PM 36.5617 -88.9981 235° Southwest 354 407 36,000  Level Memphis Center
07:24PM 36.5067 -89.0972 235° Southwest 349 402 36,000  Level Memphis Center
07:25PM 36.4472 -89.1986 234° Southwest 356 410 36,000  Level Memphis Center
07:26PM 36.3856 -89.3078 235° Southwest 362 417 36,000  Level Memphis Center
07:27PM 36.3300 -89.4117 236° Southwest 368 423 36,000  Level Memphis Center
07:28PM 36.2619 -89.5206 232° Southwest 386 444 36,000  Level Memphis Center
07:29PM 36.2044 -89.6239 235° Southwest 386 444 36,000  Level Memphis Center
07:30PM 36.1467 -89.7247 235° Southwest 381 438 36,000  Level Memphis Center
07:31PM 36.0867 -89.8281 234° Southwest 375 432 36,000  Level Memphis Center
07:32PM 36.0286 -89.9283 234° Southwest 375 432 36,000  Level Memphis Center
07:33PM 35.9683 -90.0314 234° Southwest 375 432 36,000  Level Memphis Center
07:34PM 35.9103 -90.1289 234° Southwest 375 432 36,000  Level Memphis Center
07:35PM 35.8500 -90.2314 234° Southwest 375 432 36,000  Level Memphis Center
07:36PM 35.7917 -90.3314 234° Southwest 375 432 36,000  Level Memphis Center
07:37PM 35.7333 -90.4336 235° Southwest 375 432 36,000  Level Memphis Center
07:38PM 35.6872 -90.5206 237° Southwest 370 426 36,000  Level Memphis Center
07:39PM 35.6225 -90.6303 234° Southwest 355 409 36,000  Level Memphis Center
07:40PM 35.5617 -90.7322 234° Southwest 361 415 36,000  Level Memphis Center
07:41PM 35.5031 -90.8289 233° Southwest 361 415 36,000  Level Memphis Center
07:42PM 35.4419 -90.9278 233° Southwest 366 421 36,000  Level Memphis Center
07:43PM 35.3831 -91.0269 234° Southwest 360 414 36,000  Level Memphis Center
07:44PM 35.3242 -91.1206 232° Southwest 366 421 36,000  Level Memphis Center
07:45PM 35.2653 -91.2192 234° Southwest 361 415 36,000  Level Memphis Center
07:46PM 35.2061 -91.3178 234° Southwest 361 415 36,000  Level Memphis Center
07:47PM 35.1447 -91.4161 233° Southwest 361 415 36,000  Level Memphis Center
07:48PM 35.0856 -91.5142 234° Southwest 361 415 36,000  Level Memphis Center
07:49PM 35.0239 -91.6147 233° Southwest 366 421 36,000  Level Memphis Center
07:50PM 34.9667 -91.7103 234° Southwest 366 421 36,000  Level Memphis Center
07:51PM 34.9050 -91.8081 232° Southwest 366 421 36,000  Level Memphis Center
07:52PM 34.8475 -91.9058 234° Southwest 366 421 36,000  Level Memphis Center
07:53PM 34.7858 -92.0033 232° Southwest 361 415 36,000  Level Memphis Center
07:54PM 34.7261 -92.1006 233° Southwest 361 415 36,000  Level Memphis Center
07:55PM 34.6497 -92.1850 222° Southwest 366 421 36,000  Level Memphis Center
07:56PM 34.5431 -92.2053 189° South 359 413 36,000  Level Memphis Center
07:57PM 34.4300 -92.2281 189° South 383 441 36,000  Level Memphis Center
07:58PM 34.3192 -92.2483 189° South 399 459 36,000  Level Memphis Center
07:59PM 34.2125 -92.2686 189° South 404 465 36,000  Level Memphis Center
08:00PM 34.1058 -92.2839 187° South 404 465 36,000  Level Memphis Center
08:01PM 34.0031 -92.3089 191° South 388 447 36,000  Level Memphis Center
08:02PM 33.8639 -92.3333 188° South 368 423 36,000  Level Fort Worth Center
08:03PM 33.7583 -92.3547 190° South 373 429 36,000  Level Fort Worth Center
08:04PM 33.6525 -92.3706 187° South 386 444 36,000  Level Fort Worth Center
08:05PM 33.5450 -92.3919 189° South 391 450 36,000  Level Fort Worth Center
08:06PM 33.4350 -92.4106 188° South 386 444 36,000  Level Fort Worth Center
08:07PM 33.3314 -92.4289 188° South 386 444 36,000  Level Fort Worth Center
08:08PM 33.2261 -92.4519 190° South 386 444 36,000  Level Fort Worth Center
08:09PM 33.1203 -92.4681 187° South 386 444 36,000  Level Fort Worth Center
08:10PM 33.0144 -92.4886 189° South 386 444 36,000 -60 Level Fort Worth Center
08:11PM 32.9089 -92.5069 188° South 386 444 35,900 -780 Descending Fort Worth Center
08:12PM 32.8031 -92.5250 188° South 386 444 34,500 -960 Descending Fort Worth Center
08:13PM 32.6975 -92.5431 188° South 386 444 34,000 -180 Descending Fort Worth Center
08:16PM 32.4550 -92.5917 190° South 396 456 34,000  Level Houston Center
08:17PM 32.3467 -92.6103 188° South 393 452 34,000  Level Houston Center
08:18PM 32.2194 -92.6325 188° South 386 444 34,000  Level Houston Center
08:19PM 32.1100 -92.6514 188° South 397 457 34,000 -60 Level Houston Center
08:20PM 32.0011 -92.6719 189° South 396 456 33,900 -60 Descending Houston Center
08:21PM 31.9150 -92.7331 211° Southwest 359 413 33,900  Level Houston Center
08:22PM 31.8400 -92.8069 220° Southwest 353 406 34,000  Climbing Houston Center
08:23PM 31.7636 -92.8794 219° Southwest 352 405 34,000  Level Houston Center
08:24PM 31.6886 -92.9522 220° Southwest 350 403 34,000  Level Houston Center
08:25PM 31.5981 -93.0392 219° Southwest 352 405 34,000  Level Houston Center
08:26PM 31.5222 -93.1131 220° Southwest 354 407 34,000  Level Houston Center
08:27PM 31.4444 -93.1864 219° Southwest 357 411 34,000 -60 Level Houston Center
08:28PM 31.3667 -93.2603 219° Southwest 361 415 33,900 -720 Descending Houston Center
08:29PM 31.2847 -93.3394 220° Southwest 363 418 32,600 -1,620 Descending Houston Center
08:30PM 31.2117 -93.4092 219° Southwest 361 415 30,600 -1,980 Descending Houston Center
08:31PM 31.1328 -93.4842 219° Southwest 365 420 28,600 -2,160 Descending Houston Center
08:32PM 31.0308 -93.5825 220° Southwest 392 451 26,200 -2,160 Descending Houston Center
08:33PM 30.9406 -93.6669 219° Southwest 412 474 24,200 -1,080 Descending Houston Center
08:34PM 30.8539 -93.7486 219° Southwest 407 468 24,000 -120 Descending Houston Center
08:35PM 30.7661 -93.8314 219° Southwest 402 463 24,000 -300 Level Houston Center
08:36PM 30.6794 -93.9125 219° Southwest 410 472 23,500 -1,440 Descending Houston Center
08:37PM 30.5778 -94.0092 219° Southwest 398 458 21,100 -2,340 Descending Houston Center
08:38PM 30.5306 -94.0514 218° Southwest 390 449 19,900 -2,400 Descending Houston Center
08:38PM 30.4942 -94.0875 221° Southwest 389 448 18,700 -2,520 Descending Houston Center
08:39PM 30.4103 -94.1658 219° Southwest 390 449 16,100 -2,640 Descending Houston Center
08:40PM 30.3144 -94.2644 222° Southwest 382 440 13,000 -2,220 Descending Houston Center
08:41PM 30.2842 -94.3503 248° West 369 425 11,600 -1,500 Descending Houston Center
08:42PM 30.2428 -94.4747 249° West 363 418 10,100 -840 Descending Houston Center
08:43PM 30.2078 -94.5853 250° West 358 412 10,000 -60 Descending Houston Center
08:44PM 30.1733 -94.6931 250° West 359 413 10,000  Level Houston Center
08:45PM 30.1381 -94.8014 249° West 362 417 10,000  Level Houston Center
08:47PM 30.1058 -94.9275 254° West 364 419 10,000  Level Houston Center
08:48PM 30.1069 -95.0531 271° West 362 417 10,000  Level Houston Center
08:49PM 30.1072 -95.1414 270° West 362 417 10,000 -360 Level Houston Center
08:50PM 30.1069 -95.2572 270° West 293 337 9,400 -1,200 Descending Houston Center
08:51PM 30.1067 -95.3464 270° West 278 320 7,600 -1,740 Descending Houston Center
08:52PM 30.1081 -95.4356 271° West 279 321 5,900 -1,500 Descending Houston Center
08:53PM 30.1014 -95.5392 266° West 251 289 4,300 -900 Descending Houston Center
08:54PM 30.0561 -95.5736 213° Southwest 218 251 4,000 -780 Descending Houston Center
08:55PM 30.0150 -95.5133 128° Southeast 225 259 2,800 -1,200 Descending Houston Center